createdAt,value
2024-01-20T09:46:17.538Z,-2.73
2024-01-20T09:48:46.017Z,-2.69
2024-01-20T09:51:13.206Z,-2.66
2024-01-20T09:53:40.710Z,-2.55
2024-01-20T09:56:07.452Z,-2.56
2024-01-20T09:58:38.552Z,-2.61
2024-01-20T10:01:08.008Z,-2.74
2024-01-20T10:03:39.777Z,-2.58
2024-01-20T10:06:06.850Z,-2.09
2024-01-20T10:08:35.263Z,-2.59
2024-01-20T10:11:07.316Z,-2.52
2024-01-20T10:13:33.978Z,-2.64
2024-01-20T10:16:00.632Z,-2.59
2024-01-20T10:18:28.507Z,-2.34
2024-01-20T10:21:04.769Z,-2.62
2024-01-20T10:23:35.032Z,-2.34
2024-01-20T10:26:06.536Z,-2.06
2024-01-20T10:28:34.734Z,-2.12
2024-01-20T10:31:10.547Z,-2.04
2024-01-20T10:33:38.436Z,-2.24
2024-01-20T10:36:18.891Z,-2.39
2024-01-20T10:40:00.641Z,-2.08
2024-01-20T10:42:31.811Z,-2.26
2024-01-20T10:45:05.399Z,-2.30
2024-01-20T10:47:41.424Z,-2.40
2024-01-20T10:50:09.304Z,-2.27
2024-01-20T11:01:23.936Z,-2.22
2024-01-20T11:03:50.892Z,-1.88
2024-01-20T11:06:26.226Z,-1.68
2024-01-20T11:08:53.879Z,-1.94
2024-01-20T11:11:21.478Z,-1.88
2024-01-20T11:13:51.137Z,-1.72
2024-01-20T11:16:22.454Z,-1.71
2024-01-20T11:18:49.705Z,-2.17
2024-01-20T11:21:17.987Z,-1.91
2024-01-20T11:24:08.040Z,-1.70
2024-01-20T11:26:36.571Z,-1.38
2024-01-20T11:29:05.922Z,-1.39
2024-01-20T11:31:33.662Z,-1.55
2024-01-20T11:34:03.066Z,-1.51
2024-01-20T11:36:31.159Z,-1.32
2024-01-20T11:38:59.053Z,-1.24
2024-01-20T11:41:25.919Z,-1.22
2024-01-20T11:43:52.588Z,-1.01
2024-01-20T11:46:20.447Z,-1.24
2024-01-20T11:48:50.892Z,-1.41
2024-01-20T11:51:17.969Z,-1.13
2024-01-20T11:53:46.541Z,-1.19
2024-01-20T11:56:15.744Z,-1.11
2024-01-20T11:58:42.412Z,-0.68
2024-01-20T12:01:09.268Z,-0.45
2024-01-20T12:03:36.255Z,-0.46
2024-01-20T12:06:09.685Z,-0.41
2024-01-20T12:08:42.203Z,-0.22
2024-01-20T12:11:18.011Z,0.09
2024-01-20T12:13:48.733Z,-0.31
2024-01-20T12:16:16.537Z,-0.25
2024-01-20T12:18:43.410Z,-0.40
2024-01-20T12:21:10.347Z,-0.07
2024-01-20T12:23:37.056Z,0.14
2024-01-20T12:26:12.452Z,0.13
2024-01-20T12:28:39.195Z,0.22
2024-01-20T12:31:05.910Z,0.26
2024-01-20T12:33:32.928Z,0.18
2024-01-20T12:35:59.962Z,0.45
2024-01-20T12:38:26.628Z,0.57
2024-01-20T12:40:53.412Z,0.70
2024-01-20T12:43:20.141Z,1.03
2024-01-20T12:45:46.978Z,0.99
2024-01-20T12:48:13.878Z,0.77
2024-01-20T12:50:40.598Z,0.64
2024-01-20T12:59:49.920Z,1.42
2024-01-20T13:02:16.756Z,1.28
2024-01-20T13:09:59.000Z,1.92
2024-01-20T13:16:44.169Z,1.54
2024-01-20T13:32:19.602Z,3.24
2024-01-20T13:44:26.026Z,3.52
2024-01-20T13:46:52.667Z,4.83
2024-01-20T13:50:21.140Z,4.99
2024-01-20T13:52:50.676Z,4.29
2024-01-20T13:55:18.334Z,3.99
2024-01-20T14:06:31.453Z,3.05
2024-01-20T14:48:55.581Z,0.38
2024-01-20T14:51:22.589Z,-0.03
2024-01-20T14:53:49.296Z,-0.12
2024-01-20T14:56:15.988Z,-0.21
2024-01-20T14:58:42.725Z,-0.15
2024-01-20T15:01:09.977Z,-0.19
2024-01-20T15:07:54.487Z,-0.63
2024-01-20T15:10:22.462Z,-0.52
2024-01-20T15:12:49.949Z,-0.61
2024-01-20T15:23:53.516Z,-1.00
2024-01-20T15:26:34.881Z,-1.06
2024-01-20T15:29:01.590Z,-1.02
2024-01-20T15:31:28.581Z,-1.15
2024-01-20T15:33:57.675Z,-1.23
2024-01-20T15:36:24.815Z,-1.10
2024-01-20T15:40:01.675Z,-1.62
2024-01-20T15:43:56.474Z,-1.30
2024-01-20T15:46:23.430Z,-1.30
2024-01-20T15:48:50.432Z,-1.40
2024-01-20T15:51:17.244Z,-1.40
2024-01-20T15:53:45.845Z,-1.50
2024-01-20T15:56:14.858Z,-1.48
2024-01-20T15:58:41.945Z,-1.56
2024-01-20T16:01:08.776Z,-1.54
2024-01-20T16:03:35.706Z,-1.55
2024-01-20T16:06:02.582Z,-1.50
2024-01-20T16:08:29.430Z,-1.73
2024-01-20T16:10:56.265Z,-1.72
2024-01-20T16:13:22.918Z,-1.87
2024-01-20T16:15:49.632Z,-2.06
2024-01-20T16:18:16.537Z,-1.89
2024-01-20T16:20:43.542Z,-1.79
2024-01-20T16:23:10.891Z,-2.00
2024-01-20T16:25:38.187Z,-2.04
2024-01-20T16:28:05.247Z,-1.98
2024-01-20T16:30:32.541Z,-1.99
2024-01-20T16:32:59.281Z,-2.04
2024-01-20T16:35:26.036Z,-1.94
2024-01-20T16:37:52.763Z,-2.15
2024-01-20T16:40:19.559Z,-2.18
2024-01-20T16:42:46.367Z,-2.18
2024-01-20T16:45:13.226Z,-2.24
2024-01-20T16:47:40.351Z,-2.39
2024-01-20T16:50:07.129Z,-2.19
2024-01-20T16:52:33.841Z,-2.18
2024-01-20T16:55:14.004Z,-2.20
2024-01-20T16:57:42.784Z,-2.21
2024-01-20T17:00:10.199Z,-2.30
2024-01-20T17:02:36.989Z,-2.44
2024-01-20T17:05:03.992Z,-2.18
2024-01-20T17:07:30.770Z,-2.40
2024-01-20T17:09:57.401Z,-2.17
2024-01-20T17:12:26.119Z,-2.39
2024-01-20T17:14:52.985Z,-2.60
2024-01-20T17:17:19.686Z,-2.43
2024-01-20T17:19:46.611Z,-2.27
2024-01-20T17:22:13.326Z,-2.34
2024-01-20T17:24:40.050Z,-2.28
2024-01-20T17:27:06.777Z,-2.48
2024-01-20T17:29:33.924Z,-2.52
2024-01-20T17:32:04.272Z,-2.56
2024-01-20T17:34:33.657Z,-2.46
2024-01-20T17:37:01.123Z,-2.40
2024-01-20T17:39:29.270Z,-2.53
2024-01-20T17:41:58.825Z,-2.58
2024-01-20T17:44:25.696Z,-2.58
2024-01-20T17:46:54.614Z,-2.81
2024-01-20T17:49:21.348Z,-2.82
2024-01-20T17:51:48.297Z,-2.85
2024-01-20T17:54:15.355Z,-2.84
2024-01-20T17:56:42.116Z,-2.97
2024-01-20T17:59:08.909Z,-2.97
2024-01-20T18:01:35.646Z,-2.90
2024-01-20T18:04:02.594Z,-2.78
2024-01-20T18:06:29.373Z,-3.05
2024-01-20T18:08:56.095Z,-2.90
2024-01-20T18:11:22.946Z,-3.08
2024-01-20T18:13:49.979Z,-3.03
2024-01-20T18:16:16.737Z,-3.07
2024-01-20T18:18:44.717Z,-2.90
2024-01-20T18:21:11.594Z,-3.01
2024-01-20T18:23:39.593Z,-3.02
2024-01-20T18:26:06.329Z,-3.15
2024-01-20T18:28:33.122Z,-3.26
2024-01-20T18:31:00.805Z,-3.20
2024-01-20T18:33:27.828Z,-3.27
2024-01-20T18:35:54.544Z,-3.13
2024-01-20T18:38:21.317Z,-3.24
2024-01-20T18:40:48.303Z,-3.20
2024-01-20T18:43:15.002Z,-3.23
2024-01-20T18:45:41.719Z,-3.28
2024-01-20T18:48:09.284Z,-3.21
2024-01-20T18:50:37.167Z,-3.11
2024-01-20T18:53:03.967Z,-3.14
2024-01-20T18:55:30.600Z,-3.35
2024-01-20T18:57:57.604Z,-3.48
2024-01-20T19:00:25.163Z,-3.33
2024-01-20T19:02:52.550Z,-3.39
2024-01-20T19:05:19.723Z,-3.32
2024-01-20T19:07:46.444Z,-3.42
2024-01-20T19:10:13.194Z,-3.31
2024-01-20T19:12:44.124Z,-3.34
2024-01-20T19:15:11.214Z,-3.30
2024-01-20T19:17:38.006Z,-3.54
2024-01-20T19:20:11.602Z,-3.45
2024-01-20T19:22:38.312Z,-3.63
2024-01-20T19:25:05.707Z,-3.50
2024-01-20T19:27:32.405Z,-3.49
2024-01-20T19:29:59.141Z,-3.36
2024-01-20T19:32:25.814Z,-3.56
2024-01-20T19:34:52.588Z,-3.47
2024-01-20T19:37:19.335Z,-3.52
2024-01-20T19:39:46.359Z,-3.50
2024-01-20T19:42:13.932Z,-3.67
2024-01-20T19:44:40.650Z,-3.61
2024-01-20T19:47:07.673Z,-3.74
2024-01-20T19:49:34.774Z,-3.63
2024-01-20T19:52:03.117Z,-3.57
2024-01-20T19:54:30.318Z,-3.59
2024-01-20T19:57:05.215Z,-3.72
2024-01-20T19:59:31.995Z,-3.64
2024-01-20T20:01:58.971Z,-3.59
2024-01-20T20:04:25.903Z,-3.68
2024-01-20T20:07:13.936Z,-3.58
2024-01-20T20:09:43.279Z,-3.63
2024-01-20T20:16:17.813Z,-3.74
2024-01-20T20:18:46.894Z,-3.71
2024-01-20T20:21:15.016Z,-3.73
2024-01-20T20:23:45.764Z,-3.77
2024-01-20T20:26:12.918Z,-3.73
2024-01-20T20:28:46.497Z,-3.58
2024-01-20T20:31:17.062Z,-3.52
2024-01-20T20:33:49.218Z,-3.61
2024-01-20T20:47:05.508Z,-3.58
